Etusivu
METAR-TAF:

METAR-TAF

Lentoasemat :

Bejaïa, Algeria

Leveyspiiri: 36-43N, Pituuspiiri: 005-04E, korkeus merenpinnasta: 2 m

Tämänhetkinen sää

Tämä raportti tehtiin 26 minuuttia sitten, kello 09.00 UTC
Tuuli 7 kn lännestä, vaihdellen lounaan ja pohjoisen välillä
Lämpötila 27°C
Kosteus 51%
Ilmanpaine 1017 hPa
Näkyvyys: 8000 m

METAR: DAAE 140900Z 27007KT 220V360 8000 NSC 27/16 Q1017

Aika: 10:26 (09:26 UTC)

Sääennuste

Tämä raportti tehtiin 4 tuntia ja 26 minuuttia sitten, kello 05.00 UTC
Ennuste voimassa 14. päivästä klo 06 UTC - 15. päivään klo 06 UTC
Tuuli 8 kn lounaasta
Näkyvyys 10 km tai enemmän
ei pilviä alle 1500 m:ssä eikä cumulonimbus-pilviä
Todennäköisyys 30% :
Ajoittain
14. päivästä klo 12 UTC - 14. päivään klo 18 UTC
Tuuli 12 kn pohjoisesta/koillisesta
Muutamia pilviä 2300 ft:n korkeudessa, Kasvava cumulus-pilvi.

TAF: DAAE 140500Z 1406/1506 23008KT CAVOK PROB30 TEMPO 1412/1418 03012KT FEW023TCU

Säähavainnot ja -ennusteet yli 4000 lentoasemalta (METAR- ja TAF-raportit).

Käytössä olevat sääasemat on merkitty karttaan keltaisilla ja punaisilla pisteillä.

Aseta hiiri pisteen päälle nähdäksesi sääaseman nimen.

Klikkaa sitten nähdäksesi säähavainnot ja -ennusteet.

Kartan vaihtaminen: klikkaa mustalla rastilla varustettuja vihreitä pisteitä, niin voit zoomata sisään; viivalla varustettua vihreää pistettä, niin voit zoomata ulos tai vihreitä nuolia, niin pääset viereisille kartoille.


METAR-TAF: